THA422 WSSS-VTBS
Flight info
| Callsign | THA422 |
|---|---|
| Flight time | N/A |
| Altitude | 38000 |
| Route | VMR9B VMR B469 VPK M751 VKB M644 ALUMO Y12 ALEMI TUMGA1C |
| Aircraft | A20N/M-SDE2E3FGHIRWXY/LB1 |
Departure
| Time | 2026-05-07 15:49 |
|---|---|
| Airport | Singapore Changi Airport (WSSS) |
Arrival
| Time | N/A |
|---|---|
| Airport | Suvarnabhumi Airport (VTBS) |
| Time | Latitude | Longitude | Altitude | Speed | Heading |
|---|---|---|---|---|---|
| 2026-05-07 15:10 | 1.36200 | 103.99298 | 41 ft | 0 kts | 293° |
| 2026-05-07 15:24 | 1.36200 | 103.99299 | 41 ft | 0 kts | 293° |
| 2026-05-07 15:34 | 1.36194 | 103.99312 | 41 ft | 2 kts | 293° |
| 2026-05-07 15:34 | 1.36188 | 103.99326 | 41 ft | 2 kts | 294° |
| 2026-05-07 15:35 | 1.36182 | 103.99340 | 41 ft | 2 kts | 293° |
| 2026-05-07 15:35 | 1.36176 | 103.99354 | 40 ft | 2 kts | 293° |
| 2026-05-07 15:35 | 1.36170 | 103.99367 | 40 ft | 2 kts | 293° |
| 2026-05-07 15:35 | 1.36164 | 103.99380 | 40 ft | 2 kts | 320° |
| 2026-05-07 15:36 | 1.36150 | 103.99386 | 40 ft | 2 kts | 5° |
| 2026-05-07 15:36 | 1.36143 | 103.99384 | 40 ft | 0 kts | 26° |
| 2026-05-07 15:36 | 1.36159 | 103.99389 | 39 ft | 2 kts | 22° |
| 2026-05-07 15:36 | 1.36163 | 103.99391 | 39 ft | 0 kts | 22° |
| 2026-05-07 15:44 | 1.36164 | 103.99391 | 39 ft | 1 kts | 22° |
| 2026-05-07 15:44 | 1.36202 | 103.99407 | 38 ft | 11 kts | 22° |
| 2026-05-07 15:44 | 1.36259 | 103.99432 | 36 ft | 10 kts | 28° |
| 2026-05-07 15:45 | 1.36312 | 103.99481 | 35 ft | 7 kts | 53° |
| 2026-05-07 15:45 | 1.36343 | 103.99543 | 34 ft | 11 kts | 85° |
| 2026-05-07 15:45 | 1.36315 | 103.99634 | 32 ft | 15 kts | 113° |
| 2026-05-07 15:45 | 1.36284 | 103.99712 | 32 ft | 0 kts | 112° |
| 2026-05-07 15:46 | 1.36258 | 103.99772 | 31 ft | 0 kts | 113° |
| 2026-05-07 15:47 | 1.36256 | 103.99778 | 31 ft | 4 kts | 113° |
| 2026-05-07 15:47 | 1.36233 | 103.99832 | 30 ft | 12 kts | 114° |
| 2026-05-07 15:47 | 1.36155 | 103.99881 | 30 ft | 14 kts | 197° |
| 2026-05-07 15:48 | 1.36064 | 103.99843 | 32 ft | 14 kts | 202° |
| 2026-05-07 15:48 | 1.35830 | 103.99745 | 33 ft | 77 kts | 203° |
| 2026-05-07 15:48 | 1.35078 | 103.99429 | 38 ft | 154 kts | 202° |
| 2026-05-07 15:48 | 1.33984 | 103.98952 | 484 ft | 180 kts | 203° |
| 2026-05-07 15:49 | 1.32882 | 103.98476 | 1500 ft | 175 kts | 202° |
| 2026-05-07 15:49 | 1.31777 | 103.98008 | 2280 ft | 174 kts | 201° |
| 2026-05-07 15:49 | 1.30633 | 103.97527 | 2799 ft | 190 kts | 201° |
| 2026-05-07 15:49 | 1.29326 | 103.96976 | 3001 ft | 214 kts | 202° |
| 2026-05-07 15:50 | 1.27872 | 103.96603 | 2982 ft | 217 kts | 179° |
| 2026-05-07 15:50 | 1.26464 | 103.97054 | 2994 ft | 218 kts | 145° |
| 2026-05-07 15:50 | 1.25533 | 103.98252 | 3001 ft | 221 kts | 111° |
| 2026-05-07 15:50 | 1.25427 | 103.99779 | 3002 ft | 225 kts | 78° |
| 2026-05-07 15:51 | 1.26140 | 104.01189 | 2991 ft | 228 kts | 54° |
| 2026-05-07 15:51 | 1.27115 | 104.02432 | 2962 ft | 227 kts | 51° |
| 2026-05-07 15:51 | 1.28130 | 104.03640 | 2986 ft | 227 kts | 50° |
| 2026-05-07 15:51 | 1.29074 | 104.04749 | 2996 ft | 227 kts | 50° |
| 2026-05-07 15:52 | 1.30165 | 104.06029 | 3001 ft | 228 kts | 50° |
| 2026-05-07 15:52 | 1.31203 | 104.07246 | 3230 ft | 235 kts | 50° |
| 2026-05-07 15:52 | 1.32256 | 104.08482 | 4109 ft | 237 kts | 50° |
| 2026-05-07 15:52 | 1.33309 | 104.09721 | 5087 ft | 236 kts | 50° |
| 2026-05-07 15:53 | 1.34373 | 104.10980 | 5944 ft | 240 kts | 50° |
| 2026-05-07 15:53 | 1.35431 | 104.12238 | 6776 ft | 244 kts | 50° |
| 2026-05-07 15:53 | 1.36527 | 104.13545 | 7602 ft | 248 kts | 47° |
| 2026-05-07 15:53 | 1.37899 | 104.14556 | 8152 ft | 249 kts | 15° |
| 2026-05-07 15:54 | 1.39601 | 104.14625 | 8467 ft | 245 kts | 343° |
| 2026-05-07 15:54 | 1.41182 | 104.14092 | 8493 ft | 244 kts | 336° |
| 2026-05-07 15:54 | 1.42804 | 104.13472 | 8493 ft | 250 kts | 338° |
| 2026-05-07 15:54 | 1.44488 | 104.12915 | 8501 ft | 271 kts | 340° |
| 2026-05-07 15:55 | 1.46391 | 104.12348 | 8497 ft | 290 kts | 341° |
| 2026-05-07 15:55 | 1.48345 | 104.11794 | 8493 ft | 293 kts | 342° |
| 2026-05-07 15:55 | 1.50321 | 104.11248 | 8491 ft | 294 kts | 342° |
| 2026-05-07 15:55 | 1.52286 | 104.10710 | 8490 ft | 294 kts | 342° |
| 2026-05-07 15:56 | 1.54239 | 104.10178 | 8490 ft | 294 kts | 342° |
| 2026-05-07 15:56 | 1.56244 | 104.09632 | 8490 ft | 295 kts | 342° |
| 2026-05-07 15:56 | 1.58231 | 104.09092 | 8489 ft | 295 kts | 342° |
| 2026-05-07 15:56 | 1.59548 | 104.08733 | 8489 ft | 295 kts | 342° |
| 2026-05-07 15:57 | 1.62170 | 104.08021 | 8490 ft | 295 kts | 343° |
| 2026-05-07 15:57 | 1.64140 | 104.07485 | 8490 ft | 295 kts | 343° |
| 2026-05-07 15:57 | 1.66148 | 104.06939 | 8490 ft | 295 kts | 343° |
| 2026-05-07 15:57 | 1.68118 | 104.06403 | 8490 ft | 295 kts | 343° |
| 2026-05-07 15:58 | 1.70085 | 104.05868 | 8490 ft | 296 kts | 343° |
| 2026-05-07 15:58 | 1.72115 | 104.05315 | 8777 ft | 302 kts | 343° |
| 2026-05-07 15:58 | 1.74127 | 104.04772 | 9844 ft | 299 kts | 343° |
| 2026-05-07 15:58 | 1.76096 | 104.04247 | 11053 ft | 292 kts | 342° |
| 2026-05-07 15:59 | 1.78038 | 104.03722 | 11918 ft | 295 kts | 342° |
| 2026-05-07 15:59 | 1.80057 | 104.03172 | 12710 ft | 302 kts | 341° |
| 2026-05-07 15:59 | 1.82084 | 104.02618 | 13509 ft | 307 kts | 341° |
| 2026-05-07 15:59 | 1.84136 | 104.02058 | 14292 ft | 313 kts | 341° |
| 2026-05-07 16:00 | 1.86233 | 104.01487 | 15058 ft | 318 kts | 341° |
| 2026-05-07 16:00 | 1.88389 | 104.00899 | 15813 ft | 323 kts | 342° |
| 2026-05-07 16:00 | 1.90543 | 104.00312 | 16540 ft | 328 kts | 342° |
| 2026-05-07 16:00 | 1.92777 | 103.99703 | 17267 ft | 333 kts | 342° |
| 2026-05-07 16:01 | 1.95026 | 103.99091 | 17973 ft | 338 kts | 342° |
| 2026-05-07 16:01 | 1.97288 | 103.98475 | 18655 ft | 343 kts | 342° |
| 2026-05-07 16:01 | 1.99627 | 103.97838 | 19337 ft | 348 kts | 342° |
| 2026-05-07 16:01 | 2.01997 | 103.97193 | 20005 ft | 353 kts | 343° |
| 2026-05-07 16:02 | 2.04386 | 103.96543 | 20663 ft | 357 kts | 343° |
| 2026-05-07 16:02 | 2.06770 | 103.95895 | 21576 ft | 352 kts | 343° |
| 2026-05-07 16:02 | 2.09087 | 103.95264 | 22618 ft | 342 kts | 343° |
| 2026-05-07 16:02 | 2.11328 | 103.94653 | 23606 ft | 331 kts | 344° |
| 2026-05-07 16:03 | 2.13521 | 103.94056 | 24356 ft | 328 kts | 345° |
| 2026-05-07 16:03 | 2.15745 | 103.93450 | 24909 ft | 332 kts | 345° |
| 2026-05-07 16:03 | 2.17966 | 103.92847 | 25419 ft | 336 kts | 345° |
| 2026-05-07 16:03 | 2.20211 | 103.92236 | 25928 ft | 339 kts | 345° |
| 2026-05-07 16:04 | 2.22494 | 103.91615 | 26435 ft | 342 kts | 346° |
| 2026-05-07 16:04 | 2.24802 | 103.90987 | 26932 ft | 345 kts | 346° |
| 2026-05-07 16:04 | 2.27141 | 103.90350 | 27423 ft | 348 kts | 346° |
| 2026-05-07 16:04 | 2.29487 | 103.89712 | 27796 ft | 351 kts | 346° |
| 2026-05-07 16:05 | 2.31847 | 103.89070 | 27868 ft | 352 kts | 346° |
| 2026-05-07 16:05 | 2.34209 | 103.88428 | 27872 ft | 351 kts | 346° |
| 2026-05-07 16:05 | 2.36564 | 103.87783 | 27935 ft | 355 kts | 345° |
| 2026-05-07 16:05 | 2.38908 | 103.87026 | 28348 ft | 359 kts | 341° |
| 2026-05-07 16:06 | 2.41240 | 103.86087 | 28907 ft | 359 kts | 338° |
| 2026-05-07 16:06 | 2.43496 | 103.85066 | 29385 ft | 361 kts | 337° |
| 2026-05-07 16:06 | 2.45772 | 103.84015 | 29826 ft | 364 kts | 337° |
| 2026-05-07 16:06 | 2.48073 | 103.82953 | 30234 ft | 367 kts | 337° |
| 2026-05-07 16:07 | 2.50415 | 103.81877 | 30448 ft | 376 kts | 337° |
| 2026-05-07 16:07 | 2.52837 | 103.80768 | 30650 ft | 386 kts | 337° |
| 2026-05-07 16:07 | 2.55301 | 103.79640 | 30847 ft | 395 kts | 337° |
| 2026-05-07 16:07 | 2.57808 | 103.78494 | 31061 ft | 403 kts | 338° |
| 2026-05-07 16:08 | 2.60364 | 103.77323 | 31442 ft | 405 kts | 338° |
| 2026-05-07 16:08 | 2.62937 | 103.76144 | 31963 ft | 404 kts | 338° |
| 2026-05-07 16:08 | 2.65450 | 103.74992 | 32500 ft | 401 kts | 338° |
| 2026-05-07 16:08 | 2.67984 | 103.73831 | 33021 ft | 399 kts | 338° |
| 2026-05-07 16:09 | 2.70510 | 103.72676 | 33515 ft | 396 kts | 338° |
| 2026-05-07 16:09 | 2.72999 | 103.71538 | 33982 ft | 394 kts | 339° |
| 2026-05-07 16:09 | 2.73821 | 103.71166 | 34132 ft | 393 kts | 339° |
| 2026-05-07 16:09 | 2.77972 | 103.69310 | 34824 ft | 391 kts | 339° |
| 2026-05-07 16:10 | 2.80449 | 103.68205 | 35196 ft | 390 kts | 339° |
| 2026-05-07 16:10 | 2.82924 | 103.67099 | 35498 ft | 392 kts | 339° |
| 2026-05-07 16:10 | 2.85441 | 103.65974 | 35626 ft | 397 kts | 339° |
| 2026-05-07 16:10 | 2.87956 | 103.64848 | 35755 ft | 403 kts | 339° |
| 2026-05-07 16:11 | 2.90529 | 103.63699 | 35879 ft | 408 kts | 339° |
| 2026-05-07 16:11 | 2.93158 | 103.62529 | 36002 ft | 413 kts | 339° |
| 2026-05-07 16:11 | 2.95763 | 103.61372 | 36119 ft | 418 kts | 339° |
| 2026-05-07 16:11 | 2.98431 | 103.60186 | 36235 ft | 423 kts | 338° |
| 2026-05-07 16:12 | 3.01159 | 103.58971 | 36349 ft | 428 kts | 338° |
| 2026-05-07 16:12 | 3.03873 | 103.57764 | 36558 ft | 429 kts | 338° |
| 2026-05-07 16:12 | 3.06591 | 103.56551 | 36784 ft | 431 kts | 338° |
| 2026-05-07 16:12 | 3.09314 | 103.55338 | 37009 ft | 431 kts | 338° |
| 2026-05-07 16:13 | 3.12089 | 103.54101 | 37238 ft | 432 kts | 338° |
| 2026-05-07 16:13 | 3.14815 | 103.52887 | 37463 ft | 433 kts | 338° |
| 2026-05-07 16:13 | 3.17542 | 103.51668 | 37688 ft | 433 kts | 338° |
| 2026-05-07 16:13 | 3.20307 | 103.50425 | 37859 ft | 435 kts | 338° |
| 2026-05-07 16:14 | 3.23080 | 103.49177 | 37868 ft | 440 kts | 338° |
| 2026-05-07 16:14 | 3.28708 | 103.46643 | 37872 ft | 448 kts | 338° |
| 2026-05-07 16:15 | 3.34388 | 103.44086 | 37872 ft | 448 kts | 338° |
| 2026-05-07 16:15 | 3.40083 | 103.41587 | 37871 ft | 448 kts | 340° |
| 2026-05-07 16:16 | 3.45897 | 103.39274 | 37872 ft | 448 kts | 340° |
| 2026-05-07 16:16 | 3.51685 | 103.36985 | 37872 ft | 448 kts | 340° |
| 2026-05-07 16:17 | 3.57444 | 103.34701 | 37871 ft | 448 kts | 340° |
| 2026-05-07 16:17 | 3.63229 | 103.32404 | 37871 ft | 448 kts | 340° |
| 2026-05-07 16:18 | 3.69041 | 103.30095 | 37872 ft | 448 kts | 340° |
| 2026-05-07 16:18 | 3.74823 | 103.27797 | 37872 ft | 448 kts | 340° |
| 2026-05-07 16:19 | 3.80616 | 103.25494 | 37872 ft | 448 kts | 340° |
| 2026-05-07 16:19 | 3.86386 | 103.23200 | 37872 ft | 448 kts | 340° |
| 2026-05-07 16:20 | 3.92189 | 103.20892 | 37872 ft | 448 kts | 340° |
| 2026-05-07 16:20 | 3.97914 | 103.18617 | 37872 ft | 448 kts | 340° |
| 2026-05-07 16:21 | 4.03722 | 103.16307 | 37872 ft | 448 kts | 340° |
| 2026-05-07 16:21 | 4.09501 | 103.14008 | 37871 ft | 448 kts | 340° |
| 2026-05-07 16:22 | 4.15312 | 103.11696 | 37871 ft | 448 kts | 340° |
| 2026-05-07 16:22 | 4.21096 | 103.09395 | 37872 ft | 448 kts | 340° |
| 2026-05-07 16:23 | 4.26883 | 103.07091 | 37872 ft | 449 kts | 340° |
| 2026-05-07 16:23 | 4.32652 | 103.04795 | 37872 ft | 448 kts | 340° |
| 2026-05-07 16:24 | 4.38480 | 103.02474 | 37872 ft | 449 kts | 340° |
| 2026-05-07 16:24 | 4.44276 | 103.00166 | 37872 ft | 448 kts | 339° |
| 2026-05-07 16:25 | 4.50094 | 102.97849 | 37871 ft | 448 kts | 339° |
| 2026-05-07 16:25 | 4.55859 | 102.95552 | 37872 ft | 448 kts | 339° |
| 2026-05-07 16:26 | 4.61646 | 102.93246 | 37872 ft | 448 kts | 339° |
| 2026-05-07 16:26 | 4.67448 | 102.90933 | 37871 ft | 448 kts | 339° |
| 2026-05-07 16:27 | 4.73125 | 102.88670 | 37872 ft | 448 kts | 339° |
| 2026-05-07 16:27 | 4.78924 | 102.86357 | 37872 ft | 449 kts | 339° |
| 2026-05-07 16:28 | 4.84712 | 102.84049 | 37872 ft | 449 kts | 339° |
| 2026-05-07 16:28 | 4.90462 | 102.81760 | 37872 ft | 448 kts | 339° |
| 2026-05-07 16:29 | 4.96257 | 102.79459 | 37871 ft | 448 kts | 339° |
| 2026-05-07 16:29 | 5.02024 | 102.77169 | 37872 ft | 448 kts | 339° |
| 2026-05-07 16:30 | 5.07730 | 102.74901 | 37873 ft | 446 kts | 339° |
| 2026-05-07 16:30 | 5.13471 | 102.72615 | 37872 ft | 444 kts | 339° |
| 2026-05-07 16:31 | 5.18887 | 102.70458 | 37872 ft | 444 kts | 339° |
| 2026-05-07 16:31 | 5.24589 | 102.68172 | 37872 ft | 444 kts | 338° |
| 2026-05-07 16:32 | 5.30357 | 102.65837 | 37872 ft | 444 kts | 338° |
| 2026-05-07 16:32 | 5.35036 | 102.63946 | 37871 ft | 444 kts | 339° |
| 2026-05-07 16:33 | 5.40777 | 102.61652 | 37871 ft | 444 kts | 339° |
| 2026-05-07 16:33 | 5.46523 | 102.59361 | 37871 ft | 444 kts | 339° |
| 2026-05-07 16:34 | 5.52238 | 102.57079 | 37871 ft | 444 kts | 339° |
| 2026-05-07 16:34 | 5.57968 | 102.54791 | 37872 ft | 444 kts | 339° |
| 2026-05-07 16:35 | 5.63683 | 102.52507 | 37871 ft | 443 kts | 339° |
| 2026-05-07 16:35 | 5.69401 | 102.50221 | 37871 ft | 444 kts | 339° |
| 2026-05-07 16:36 | 5.74009 | 102.48379 | 37872 ft | 444 kts | 339° |
| 2026-05-07 16:36 | 5.79740 | 102.46085 | 37871 ft | 444 kts | 339° |
| 2026-05-07 16:37 | 5.85471 | 102.43791 | 37871 ft | 444 kts | 339° |
| 2026-05-07 16:37 | 5.91162 | 102.41513 | 37872 ft | 444 kts | 339° |
| 2026-05-07 16:38 | 5.96888 | 102.39220 | 37872 ft | 444 kts | 339° |
| 2026-05-07 16:38 | 6.02583 | 102.36938 | 37871 ft | 444 kts | 339° |
| 2026-05-07 16:39 | 6.08291 | 102.34650 | 37871 ft | 444 kts | 339° |
| 2026-05-07 16:39 | 6.14076 | 102.32488 | 37871 ft | 443 kts | 343° |
| 2026-05-07 16:40 | 6.20060 | 102.30988 | 37871 ft | 443 kts | 350° |
| 2026-05-07 16:40 | 6.26131 | 102.30115 | 37872 ft | 442 kts | 353° |
| 2026-05-07 16:41 | 6.32195 | 102.29349 | 37872 ft | 442 kts | 354° |
| 2026-05-07 16:41 | 6.38312 | 102.28650 | 37872 ft | 442 kts | 354° |
| 2026-05-07 16:42 | 6.44383 | 102.27960 | 37872 ft | 443 kts | 354° |
| 2026-05-07 16:42 | 6.50480 | 102.27261 | 37872 ft | 442 kts | 354° |
| 2026-05-07 16:43 | 6.56618 | 102.26555 | 37872 ft | 442 kts | 354° |
| 2026-05-07 16:43 | 6.62716 | 102.25851 | 37872 ft | 443 kts | 354° |
| 2026-05-07 16:44 | 6.68882 | 102.25140 | 37872 ft | 442 kts | 354° |
| 2026-05-07 16:44 | 6.74974 | 102.24437 | 37871 ft | 442 kts | 354° |
| 2026-05-07 16:45 | 6.81075 | 102.23733 | 37872 ft | 442 kts | 354° |
| 2026-05-07 16:45 | 6.87213 | 102.23024 | 37871 ft | 442 kts | 354° |
| 2026-05-07 16:46 | 6.93309 | 102.22321 | 37871 ft | 443 kts | 354° |
| 2026-05-07 16:46 | 6.99462 | 102.21612 | 37871 ft | 444 kts | 354° |
| 2026-05-07 16:47 | 7.05610 | 102.20901 | 37870 ft | 445 kts | 353° |
| 2026-05-07 16:47 | 7.11767 | 102.20188 | 37870 ft | 446 kts | 353° |
| 2026-05-07 16:48 | 7.17886 | 102.19479 | 37872 ft | 446 kts | 353° |
| 2026-05-07 16:48 | 7.24035 | 102.18767 | 37871 ft | 446 kts | 353° |
| 2026-05-07 16:49 | 7.30179 | 102.18057 | 37871 ft | 446 kts | 353° |
| 2026-05-07 16:49 | 7.36342 | 102.17342 | 37871 ft | 446 kts | 353° |
| 2026-05-07 16:50 | 7.42474 | 102.16632 | 37871 ft | 446 kts | 353° |
| 2026-05-07 16:50 | 7.48613 | 102.15923 | 37871 ft | 446 kts | 353° |
| 2026-05-07 16:51 | 7.54751 | 102.15212 | 37871 ft | 446 kts | 353° |
| 2026-05-07 16:51 | 7.60892 | 102.14501 | 37872 ft | 446 kts | 353° |
| 2026-05-07 16:52 | 7.67083 | 102.13783 | 37871 ft | 446 kts | 353° |
| 2026-05-07 16:52 | 7.73202 | 102.13073 | 37871 ft | 446 kts | 353° |
| 2026-05-07 16:53 | 7.79378 | 102.12357 | 37871 ft | 446 kts | 353° |
| 2026-05-07 16:53 | 7.85510 | 102.11645 | 37871 ft | 446 kts | 353° |
| 2026-05-07 16:54 | 7.91683 | 102.10927 | 37871 ft | 446 kts | 353° |
| 2026-05-07 16:54 | 7.97844 | 102.10211 | 37872 ft | 446 kts | 353° |
| 2026-05-07 16:55 | 8.04016 | 102.09514 | 37872 ft | 446 kts | 354° |
| 2026-05-07 16:55 | 8.10194 | 102.08974 | 37872 ft | 446 kts | 355° |
| 2026-05-07 16:56 | 8.16402 | 102.08448 | 37872 ft | 446 kts | 355° |
| 2026-05-07 16:56 | 8.25671 | 102.07644 | 37871 ft | 446 kts | 355° |
| 2026-05-07 16:57 | 8.31844 | 102.07103 | 37871 ft | 446 kts | 355° |
| 2026-05-07 16:57 | 8.38037 | 102.06561 | 37871 ft | 446 kts | 355° |
| 2026-05-07 16:58 | 8.44212 | 102.06019 | 37871 ft | 446 kts | 355° |
| 2026-05-07 16:58 | 8.50399 | 102.05476 | 37870 ft | 446 kts | 355° |
| 2026-05-07 16:59 | 8.56578 | 102.04933 | 37871 ft | 446 kts | 355° |
| 2026-05-07 16:59 | 8.62740 | 102.04393 | 37872 ft | 446 kts | 355° |
| 2026-05-07 17:00 | 8.68918 | 102.03849 | 37871 ft | 446 kts | 355° |
| 2026-05-07 17:00 | 8.75112 | 102.03304 | 37872 ft | 446 kts | 355° |
| 2026-05-07 17:01 | 8.81311 | 102.02760 | 37872 ft | 446 kts | 355° |
| 2026-05-07 17:01 | 8.87466 | 102.02219 | 37870 ft | 446 kts | 355° |
| 2026-05-07 17:02 | 8.93650 | 102.01674 | 37870 ft | 446 kts | 355° |
| 2026-05-07 17:02 | 8.99833 | 102.01128 | 37872 ft | 446 kts | 355° |
| 2026-05-07 17:03 | 9.06007 | 102.00582 | 37871 ft | 442 kts | 355° |
| 2026-05-07 17:03 | 9.12112 | 102.00045 | 37872 ft | 439 kts | 355° |
| 2026-05-07 17:04 | 9.18212 | 101.99507 | 37871 ft | 438 kts | 355° |
| 2026-05-07 17:04 | 9.24301 | 101.98970 | 37872 ft | 438 kts | 355° |
| 2026-05-07 17:05 | 9.30378 | 101.98434 | 37871 ft | 438 kts | 355° |
| 2026-05-07 17:05 | 9.36452 | 101.97908 | 37871 ft | 438 kts | 355° |
| 2026-05-07 17:06 | 9.42518 | 101.97381 | 37871 ft | 437 kts | 355° |
| 2026-05-07 17:06 | 9.48606 | 101.96851 | 37872 ft | 438 kts | 355° |
| 2026-05-07 17:07 | 9.54679 | 101.96320 | 37871 ft | 438 kts | 355° |
| 2026-05-07 17:07 | 9.60753 | 101.95789 | 37871 ft | 438 kts | 355° |
| 2026-05-07 17:08 | 9.66799 | 101.95260 | 37871 ft | 438 kts | 355° |
| 2026-05-07 17:08 | 9.72881 | 101.94728 | 37871 ft | 438 kts | 355° |